sensor_id;sensor_type;location;lat;lon;timestamp;P1;durP1;ratioP1;P2;durP2;ratioP2
61907;SDS011;47864;52.526;19.672;2023-11-19T00:01:24;77.20;;;44.63;;
61907;SDS011;47864;52.526;19.672;2023-11-19T00:03:26;67.68;;;38.80;;
61907;SDS011;47864;52.526;19.672;2023-11-19T00:05:27;63.65;;;38.53;;
61907;SDS011;47864;52.526;19.672;2023-11-19T00:07:29;74.03;;;41.75;;
61907;SDS011;47864;52.526;19.672;2023-11-19T00:09:36;66.15;;;38.90;;
61907;SDS011;47864;52.526;19.672;2023-11-19T00:11:38;72.00;;;40.55;;
61907;SDS011;47864;52.526;19.672;2023-11-19T00:13:39;61.20;;;37.45;;
61907;SDS011;47864;52.526;19.672;2023-11-19T00:15:41;67.55;;;39.75;;
61907;SDS011;47864;52.526;19.672;2023-11-19T00:17:43;68.22;;;41.38;;
61907;SDS011;47864;52.526;19.672;2023-11-19T00:19:47;67.65;;;39.03;;
61907;SDS011;47864;52.526;19.672;2023-11-19T00:21:48;64.68;;;38.67;;
61907;SDS011;47864;52.526;19.672;2023-11-19T00:23:50;71.85;;;40.67;;
61907;SDS011;47864;52.526;19.672;2023-11-19T00:25:51;73.80;;;41.85;;
61907;SDS011;47864;52.526;19.672;2023-11-19T00:27:54;71.88;;;40.08;;
61907;SDS011;47864;52.526;19.672;2023-11-19T00:29:55;73.00;;;41.80;;
61907;SDS011;47864;52.526;19.672;2023-11-19T00:31:57;68.80;;;40.65;;
61907;SDS011;47864;52.526;19.672;2023-11-19T00:33:58;71.82;;;40.20;;
61907;SDS011;47864;52.526;19.672;2023-11-19T00:36:00;71.30;;;41.33;;
61907;SDS011;47864;52.526;19.672;2023-11-19T00:38:01;65.07;;;39.33;;
61907;SDS011;47864;52.526;19.672;2023-11-19T00:40:03;73.13;;;42.30;;
61907;SDS011;47864;52.526;19.672;2023-11-19T00:42:05;76.03;;;42.50;;
61907;SDS011;47864;52.526;19.672;2023-11-19T00:44:07;76.65;;;43.92;;
61907;SDS011;47864;52.526;19.672;2023-11-19T00:46:09;74.97;;;42.08;;
61907;SDS011;47864;52.526;19.672;2023-11-19T00:48:10;81.97;;;43.35;;
61907;SDS011;47864;52.526;19.672;2023-11-19T00:50:12;71.00;;;41.58;;
61907;SDS011;47864;52.526;19.672;2023-11-19T00:52:13;72.70;;;42.90;;
61907;SDS011;47864;52.526;19.672;2023-11-19T00:54:15;73.20;;;42.50;;
61907;SDS011;47864;52.526;19.672;2023-11-19T00:56:17;70.80;;;39.50;;
61907;SDS011;47864;52.526;19.672;2023-11-19T00:58:18;64.60;;;38.65;;
61907;SDS011;47864;52.526;19.672;2023-11-19T01:00:20;65.07;;;38.67;;
61907;SDS011;47864;52.526;19.672;2023-11-19T01:02:21;73.50;;;39.20;;
61907;SDS011;47864;52.526;19.672;2023-11-19T01:04:23;66.80;;;39.33;;
61907;SDS011;47864;52.526;19.672;2023-11-19T01:06:31;70.10;;;39.20;;
61907;SDS011;47864;52.526;19.672;2023-11-19T01:08:33;71.70;;;40.03;;
61907;SDS011;47864;52.526;19.672;2023-11-19T01:10:36;68.35;;;39.90;;
61907;SDS011;47864;52.526;19.672;2023-11-19T01:12:38;68.18;;;39.00;;
61907;SDS011;47864;52.526;19.672;2023-11-19T01:14:39;74.15;;;41.13;;
61907;SDS011;47864;52.526;19.672;2023-11-19T01:16:41;66.97;;;40.33;;
61907;SDS011;47864;52.526;19.672;2023-11-19T01:18:43;66.72;;;40.08;;
61907;SDS011;47864;52.526;19.672;2023-11-19T01:20:44;67.40;;;40.55;;
61907;SDS011;47864;52.526;19.672;2023-11-19T01:22:46;68.47;;;40.20;;
61907;SDS011;47864;52.526;19.672;2023-11-19T01:24:47;67.40;;;39.72;;
61907;SDS011;47864;52.526;19.672;2023-11-19T01:26:49;64.75;;;38.65;;
61907;SDS011;47864;52.526;19.672;2023-11-19T01:28:50;67.93;;;39.33;;
61907;SDS011;47864;52.526;19.672;2023-11-19T01:30:52;65.10;;;38.90;;
61907;SDS011;47864;52.526;19.672;2023-11-19T01:32:54;65.90;;;37.97;;
61907;SDS011;47864;52.526;19.672;2023-11-19T01:34:56;58.63;;;36.38;;
61907;SDS011;47864;52.526;19.672;2023-11-19T01:36:57;62.95;;;37.00;;
61907;SDS011;47864;52.526;19.672;2023-11-19T01:38:59;58.38;;;35.00;;
61907;SDS011;47864;52.526;19.672;2023-11-19T01:41:00;58.38;;;33.88;;
61907;SDS011;47864;52.526;19.672;2023-11-19T01:43:02;56.03;;;32.65;;
61907;SDS011;47864;52.526;19.672;2023-11-19T01:45:04;52.78;;;32.42;;
61907;SDS011;47864;52.526;19.672;2023-11-19T01:47:06;52.75;;;31.17;;
61907;SDS011;47864;52.526;19.672;2023-11-19T01:49:08;51.08;;;31.52;;
61907;SDS011;47864;52.526;19.672;2023-11-19T01:51:11;54.95;;;30.77;;
61907;SDS011;47864;52.526;19.672;2023-11-19T01:53:13;51.75;;;30.92;;
61907;SDS011;47864;52.526;19.672;2023-11-19T01:55:15;56.05;;;33.92;;
61907;SDS011;47864;52.526;19.672;2023-11-19T01:57:16;49.35;;;29.80;;
61907;SDS011;47864;52.526;19.672;2023-11-19T01:59:18;52.53;;;31.65;;
61907;SDS011;47864;52.526;19.672;2023-11-19T02:01:20;55.03;;;32.58;;
61907;SDS011;47864;52.526;19.672;2023-11-19T02:03:22;63.33;;;36.25;;
61907;SDS011;47864;52.526;19.672;2023-11-19T02:05:25;59.50;;;35.85;;
61907;SDS011;47864;52.526;19.672;2023-11-19T02:07:27;57.65;;;33.45;;
61907;SDS011;47864;52.526;19.672;2023-11-19T02:09:29;56.67;;;33.08;;
61907;SDS011;47864;52.526;19.672;2023-11-19T02:11:31;57.13;;;32.50;;
61907;SDS011;47864;52.526;19.672;2023-11-19T02:13:33;50.92;;;32.95;;
61907;SDS011;47864;52.526;19.672;2023-11-19T02:15:35;57.88;;;34.45;;
61907;SDS011;47864;52.526;19.672;2023-11-19T02:17:37;54.90;;;33.25;;
61907;SDS011;47864;52.526;19.672;2023-11-19T02:19:39;52.97;;;32.25;;
61907;SDS011;47864;52.526;19.672;2023-11-19T02:21:40;52.85;;;31.05;;
61907;SDS011;47864;52.526;19.672;2023-11-19T02:23:42;50.58;;;31.15;;
61907;SDS011;47864;52.526;19.672;2023-11-19T02:25:46;49.45;;;29.60;;
61907;SDS011;47864;52.526;19.672;2023-11-19T02:27:56;49.70;;;29.98;;
61907;SDS011;47864;52.526;19.672;2023-11-19T02:29:59;47.72;;;30.42;;
61907;SDS011;47864;52.526;19.672;2023-11-19T02:32:01;49.05;;;31.25;;
61907;SDS011;47864;52.526;19.672;2023-11-19T02:34:02;49.85;;;30.83;;
61907;SDS011;47864;52.526;19.672;2023-11-19T02:36:04;53.55;;;31.95;;
61907;SDS011;47864;52.526;19.672;2023-11-19T02:38:07;54.75;;;32.90;;
61907;SDS011;47864;52.526;19.672;2023-11-19T02:40:08;50.97;;;30.88;;
61907;SDS011;47864;52.526;19.672;2023-11-19T02:42:11;52.75;;;31.52;;
61907;SDS011;47864;52.526;19.672;2023-11-19T02:44:12;51.15;;;31.13;;
61907;SDS011;47864;52.526;19.672;2023-11-19T02:46:14;55.70;;;32.17;;
61907;SDS011;47864;52.526;19.672;2023-11-19T02:48:16;54.22;;;33.80;;
61907;SDS011;47864;52.526;19.672;2023-11-19T02:50:19;57.58;;;34.50;;
61907;SDS011;47864;52.526;19.672;2023-11-19T02:52:21;50.88;;;31.88;;
61907;SDS011;47864;52.526;19.672;2023-11-19T02:54:22;63.88;;;35.42;;
61907;SDS011;47864;52.526;19.672;2023-11-19T02:56:24;59.63;;;33.70;;
61907;SDS011;47864;52.526;19.672;2023-11-19T02:58:25;56.45;;;32.90;;
61907;SDS011;47864;52.526;19.672;2023-11-19T03:00:27;56.50;;;32.95;;
61907;SDS011;47864;52.526;19.672;2023-11-19T03:02:29;57.78;;;34.13;;
61907;SDS011;47864;52.526;19.672;2023-11-19T03:04:30;58.55;;;33.85;;
61907;SDS011;47864;52.526;19.672;2023-11-19T03:06:32;52.05;;;32.13;;
61907;SDS011;47864;52.526;19.672;2023-11-19T03:08:35;55.65;;;33.15;;
61907;SDS011;47864;52.526;19.672;2023-11-19T03:10:37;55.45;;;31.92;;
61907;SDS011;47864;52.526;19.672;2023-11-19T03:12:41;58.03;;;32.80;;
61907;SDS011;47864;52.526;19.672;2023-11-19T03:14:44;55.28;;;33.70;;
61907;SDS011;47864;52.526;19.672;2023-11-19T03:16:46;54.55;;;32.20;;
61907;SDS011;47864;52.526;19.672;2023-11-19T03:18:48;59.40;;;33.17;;
61907;SDS011;47864;52.526;19.672;2023-11-19T03:20:49;56.65;;;33.35;;
61907;SDS011;47864;52.526;19.672;2023-11-19T03:22:51;54.28;;;33.85;;
61907;SDS011;47864;52.526;19.672;2023-11-19T03:24:52;55.30;;;33.60;;
61907;SDS011;47864;52.526;19.672;2023-11-19T03:26:54;55.58;;;33.17;;
61907;SDS011;47864;52.526;19.672;2023-11-19T03:28:55;58.60;;;33.03;;
61907;SDS011;47864;52.526;19.672;2023-11-19T03:30:57;56.15;;;33.22;;
61907;SDS011;47864;52.526;19.672;2023-11-19T03:32:59;58.53;;;34.25;;
61907;SDS011;47864;52.526;19.672;2023-11-19T03:35:00;58.10;;;33.10;;
61907;SDS011;47864;52.526;19.672;2023-11-19T03:37:03;52.85;;;31.40;;
61907;SDS011;47864;52.526;19.672;2023-11-19T03:39:04;59.13;;;34.35;;
61907;SDS011;47864;52.526;19.672;2023-11-19T03:41:12;56.08;;;32.53;;
61907;SDS011;47864;52.526;19.672;2023-11-19T03:43:14;52.42;;;29.77;;
61907;SDS011;47864;52.526;19.672;2023-11-19T03:45:16;61.00;;;32.78;;
61907;SDS011;47864;52.526;19.672;2023-11-19T03:47:17;56.03;;;32.53;;
61907;SDS011;47864;52.526;19.672;2023-11-19T03:49:19;60.95;;;33.25;;
61907;SDS011;47864;52.526;19.672;2023-11-19T03:51:21;57.40;;;31.33;;
61907;SDS011;47864;52.526;19.672;2023-11-19T03:53:22;56.92;;;30.85;;
61907;SDS011;47864;52.526;19.672;2023-11-19T03:55:24;60.60;;;34.00;;
61907;SDS011;47864;52.526;19.672;2023-11-19T03:57:26;60.85;;;32.70;;
61907;SDS011;47864;52.526;19.672;2023-11-19T03:59:28;57.55;;;33.13;;
61907;SDS011;47864;52.526;19.672;2023-11-19T04:01:30;56.50;;;32.85;;
61907;SDS011;47864;52.526;19.672;2023-11-19T04:03:31;60.92;;;33.13;;
61907;SDS011;47864;52.526;19.672;2023-11-19T04:05:33;63.22;;;34.67;;
61907;SDS011;47864;52.526;19.672;2023-11-19T04:07:34;63.00;;;33.55;;
61907;SDS011;47864;52.526;19.672;2023-11-19T04:09:36;61.15;;;33.30;;
61907;SDS011;47864;52.526;19.672;2023-11-19T04:11:38;61.83;;;32.63;;
61907;SDS011;47864;52.526;19.672;2023-11-19T04:13:39;59.55;;;33.20;;
61907;SDS011;47864;52.526;19.672;2023-11-19T04:15:41;61.63;;;33.17;;
61907;SDS011;47864;52.526;19.672;2023-11-19T04:17:42;62.47;;;33.22;;
61907;SDS011;47864;52.526;19.672;2023-11-19T04:19:44;61.20;;;33.08;;
61907;SDS011;47864;52.526;19.672;2023-11-19T04:21:46;67.20;;;34.45;;
61907;SDS011;47864;52.526;19.672;2023-11-19T04:23:47;69.82;;;35.25;;
61907;SDS011;47864;52.526;19.672;2023-11-19T04:25:49;65.63;;;35.42;;
61907;SDS011;47864;52.526;19.672;2023-11-19T04:27:50;69.97;;;34.55;;
61907;SDS011;47864;52.526;19.672;2023-11-19T04:29:52;73.45;;;37.13;;
61907;SDS011;47864;52.526;19.672;2023-11-19T04:31:54;65.45;;;34.78;;
61907;SDS011;47864;52.526;19.672;2023-11-19T04:33:56;68.95;;;34.95;;
61907;SDS011;47864;52.526;19.672;2023-11-19T04:35:57;69.30;;;36.63;;
61907;SDS011;47864;52.526;19.672;2023-11-19T04:37:59;72.40;;;35.42;;
61907;SDS011;47864;52.526;19.672;2023-11-19T04:40:01;66.82;;;35.22;;
61907;SDS011;47864;52.526;19.672;2023-11-19T04:42:03;73.78;;;37.70;;
61907;SDS011;47864;52.526;19.672;2023-11-19T04:44:04;73.85;;;36.42;;
61907;SDS011;47864;52.526;19.672;2023-11-19T04:46:06;68.22;;;34.55;;
61907;SDS011;47864;52.526;19.672;2023-11-19T04:48:08;69.03;;;35.33;;
61907;SDS011;47864;52.526;19.672;2023-11-19T04:50:09;71.00;;;36.22;;
61907;SDS011;47864;52.526;19.672;2023-11-19T04:52:11;65.25;;;34.20;;
61907;SDS011;47864;52.526;19.672;2023-11-19T04:54:13;73.90;;;36.30;;
61907;SDS011;47864;52.526;19.672;2023-11-19T04:56:14;71.35;;;37.13;;
61907;SDS011;47864;52.526;19.672;2023-11-19T04:58:16;73.13;;;35.15;;
61907;SDS011;47864;52.526;19.672;2023-11-19T05:00:17;73.63;;;36.80;;
61907;SDS011;47864;52.526;19.672;2023-11-19T05:02:20;76.93;;;36.58;;
61907;SDS011;47864;52.526;19.672;2023-11-19T05:04:22;73.75;;;35.70;;
61907;SDS011;47864;52.526;19.672;2023-11-19T05:06:23;73.95;;;35.40;;
61907;SDS011;47864;52.526;19.672;2023-11-19T05:08:27;69.03;;;35.25;;
61907;SDS011;47864;52.526;19.672;2023-11-19T05:10:29;74.57;;;37.58;;
61907;SDS011;47864;52.526;19.672;2023-11-19T05:12:30;71.55;;;36.35;;
61907;SDS011;47864;52.526;19.672;2023-11-19T05:14:32;76.55;;;37.90;;
61907;SDS011;47864;52.526;19.672;2023-11-19T05:16:33;75.47;;;36.55;;
61907;SDS011;47864;52.526;19.672;2023-11-19T05:18:35;72.65;;;36.90;;
61907;SDS011;47864;52.526;19.672;2023-11-19T05:20:36;71.65;;;36.63;;
61907;SDS011;47864;52.526;19.672;2023-11-19T05:22:41;72.85;;;36.25;;
61907;SDS011;47864;52.526;19.672;2023-11-19T05:24:43;73.90;;;36.83;;
61907;SDS011;47864;52.526;19.672;2023-11-19T05:26:45;74.63;;;35.22;;
61907;SDS011;47864;52.526;19.672;2023-11-19T05:28:46;75.90;;;36.08;;
61907;SDS011;47864;52.526;19.672;2023-11-19T05:30:48;68.43;;;34.95;;
61907;SDS011;47864;52.526;19.672;2023-11-19T05:32:50;74.65;;;36.10;;
61907;SDS011;47864;52.526;19.672;2023-11-19T05:34:52;82.22;;;38.40;;
61907;SDS011;47864;52.526;19.672;2023-11-19T05:36:53;77.53;;;37.28;;
61907;SDS011;47864;52.526;19.672;2023-11-19T05:38:55;78.18;;;38.83;;
61907;SDS011;47864;52.526;19.672;2023-11-19T05:40:56;72.70;;;35.53;;
61907;SDS011;47864;52.526;19.672;2023-11-19T05:42:58;76.47;;;37.80;;
61907;SDS011;47864;52.526;19.672;2023-11-19T05:45:00;74.10;;;38.28;;
61907;SDS011;47864;52.526;19.672;2023-11-19T05:47:01;74.30;;;39.50;;
61907;SDS011;47864;52.526;19.672;2023-11-19T05:49:03;82.45;;;39.50;;
61907;SDS011;47864;52.526;19.672;2023-11-19T05:51:05;78.00;;;40.17;;
61907;SDS011;47864;52.526;19.672;2023-11-19T05:53:06;80.85;;;38.95;;
61907;SDS011;47864;52.526;19.672;2023-11-19T05:55:08;79.75;;;39.08;;
61907;SDS011;47864;52.526;19.672;2023-11-19T05:57:09;84.22;;;40.85;;
61907;SDS011;47864;52.526;19.672;2023-11-19T05:59:11;80.30;;;41.15;;
61907;SDS011;47864;52.526;19.672;2023-11-19T06:01:12;80.80;;;39.03;;
61907;SDS011;47864;52.526;19.672;2023-11-19T06:03:14;115.05;;;57.30;;
61907;SDS011;47864;52.526;19.672;2023-11-19T06:05:16;87.47;;;42.45;;
61907;SDS011;47864;52.526;19.672;2023-11-19T06:07:17;85.72;;;41.25;;
61907;SDS011;47864;52.526;19.672;2023-11-19T06:09:19;75.20;;;38.97;;
61907;SDS011;47864;52.526;19.672;2023-11-19T06:11:20;96.93;;;58.13;;
61907;SDS011;47864;52.526;19.672;2023-11-19T06:13:22;84.05;;;45.65;;
61907;SDS011;47864;52.526;19.672;2023-11-19T06:15:26;90.93;;;45.08;;
61907;SDS011;47864;52.526;19.672;2023-11-19T06:17:27;81.32;;;41.13;;
61907;SDS011;47864;52.526;19.672;2023-11-19T06:19:29;77.72;;;39.28;;
61907;SDS011;47864;52.526;19.672;2023-11-19T06:21:32;91.05;;;47.15;;
61907;SDS011;47864;52.526;19.672;2023-11-19T06:23:33;92.32;;;47.65;;
61907;SDS011;47864;52.526;19.672;2023-11-19T06:25:34;81.80;;;43.35;;
61907;SDS011;47864;52.526;19.672;2023-11-19T06:27:36;95.05;;;49.70;;
61907;SDS011;47864;52.526;19.672;2023-11-19T06:29:38;107.65;;;49.78;;
61907;SDS011;47864;52.526;19.672;2023-11-19T06:31:40;164.85;;;68.28;;
61907;SDS011;47864;52.526;19.672;2023-11-19T06:33:43;196.45;;;76.95;;
61907;SDS011;47864;52.526;19.672;2023-11-19T06:35:45;174.30;;;79.60;;
61907;SDS011;47864;52.526;19.672;2023-11-19T06:37:46;128.95;;;63.40;;
61907;SDS011;47864;52.526;19.672;2023-11-19T06:39:48;120.43;;;58.17;;
61907;SDS011;47864;52.526;19.672;2023-11-19T06:41:49;116.40;;;62.67;;
61907;SDS011;47864;52.526;19.672;2023-11-19T06:43:51;112.72;;;53.83;;
61907;SDS011;47864;52.526;19.672;2023-11-19T06:45:55;120.20;;;65.85;;
61907;SDS011;47864;52.526;19.672;2023-11-19T06:47:57;106.10;;;52.00;;
61907;SDS011;47864;52.526;19.672;2023-11-19T06:49:58;99.88;;;46.47;;
61907;SDS011;47864;52.526;19.672;2023-11-19T06:52:00;85.07;;;42.28;;
61907;SDS011;47864;52.526;19.672;2023-11-19T06:54:02;87.97;;;41.08;;
61907;SDS011;47864;52.526;19.672;2023-11-19T06:56:03;84.63;;;41.35;;
61907;SDS011;47864;52.526;19.672;2023-11-19T06:58:05;82.32;;;39.45;;
61907;SDS011;47864;52.526;19.672;2023-11-19T07:00:07;87.57;;;41.70;;
61907;SDS011;47864;52.526;19.672;2023-11-19T07:02:09;92.47;;;41.38;;
61907;SDS011;47864;52.526;19.672;2023-11-19T07:04:11;97.25;;;44.67;;
61907;SDS011;47864;52.526;19.672;2023-11-19T07:06:12;106.57;;;47.20;;
61907;SDS011;47864;52.526;19.672;2023-11-19T07:08:14;92.70;;;44.38;;
61907;SDS011;47864;52.526;19.672;2023-11-19T07:10:15;93.53;;;44.60;;
61907;SDS011;47864;52.526;19.672;2023-11-19T07:12:17;100.10;;;44.88;;
61907;SDS011;47864;52.526;19.672;2023-11-19T07:14:19;87.80;;;42.40;;
61907;SDS011;47864;52.526;19.672;2023-11-19T07:16:20;85.32;;;42.90;;
61907;SDS011;47864;52.526;19.672;2023-11-19T07:18:22;99.22;;;45.38;;
61907;SDS011;47864;52.526;19.672;2023-11-19T07:20:23;86.03;;;43.42;;
61907;SDS011;47864;52.526;19.672;2023-11-19T07:22:25;84.80;;;43.80;;
61907;SDS011;47864;52.526;19.672;2023-11-19T07:24:27;85.88;;;42.40;;
61907;SDS011;47864;52.526;19.672;2023-11-19T07:26:28;81.80;;;40.70;;
61907;SDS011;47864;52.526;19.672;2023-11-19T07:28:30;81.97;;;40.40;;
61907;SDS011;47864;52.526;19.672;2023-11-19T07:30:31;74.28;;;38.00;;
61907;SDS011;47864;52.526;19.672;2023-11-19T07:32:33;75.15;;;38.35;;
61907;SDS011;47864;52.526;19.672;2023-11-19T07:34:34;79.80;;;40.40;;
61907;SDS011;47864;52.526;19.672;2023-11-19T07:36:36;78.20;;;39.17;;
61907;SDS011;47864;52.526;19.672;2023-11-19T07:38:38;77.75;;;38.00;;
61907;SDS011;47864;52.526;19.672;2023-11-19T07:40:39;72.53;;;38.08;;
61907;SDS011;47864;52.526;19.672;2023-11-19T07:42:41;74.88;;;39.22;;
61907;SDS011;47864;52.526;19.672;2023-11-19T07:44:45;77.90;;;41.30;;
61907;SDS011;47864;52.526;19.672;2023-11-19T07:46:47;89.82;;;45.58;;
61907;SDS011;47864;52.526;19.672;2023-11-19T07:48:49;76.82;;;43.60;;
61907;SDS011;47864;52.526;19.672;2023-11-19T07:50:50;70.07;;;38.47;;
61907;SDS011;47864;52.526;19.672;2023-11-19T07:52:53;71.10;;;40.17;;
61907;SDS011;47864;52.526;19.672;2023-11-19T07:54:54;64.63;;;36.42;;
61907;SDS011;47864;52.526;19.672;2023-11-19T07:56:56;68.72;;;37.38;;
61907;SDS011;47864;52.526;19.672;2023-11-19T07:58:57;67.60;;;37.38;;
61907;SDS011;47864;52.526;19.672;2023-11-19T08:00:59;62.58;;;34.70;;
61907;SDS011;47864;52.526;19.672;2023-11-19T08:03:02;64.28;;;34.58;;
61907;SDS011;47864;52.526;19.672;2023-11-19T08:05:04;62.40;;;34.90;;
61907;SDS011;47864;52.526;19.672;2023-11-19T08:07:06;60.30;;;33.97;;
61907;SDS011;47864;52.526;19.672;2023-11-19T08:09:08;65.85;;;37.08;;
61907;SDS011;47864;52.526;19.672;2023-11-19T08:11:10;65.65;;;34.85;;
61907;SDS011;47864;52.526;19.672;2023-11-19T08:13:11;70.38;;;37.90;;
61907;SDS011;47864;52.526;19.672;2023-11-19T08:15:13;58.00;;;33.22;;
61907;SDS011;47864;52.526;19.672;2023-11-19T08:17:14;61.50;;;36.22;;
61907;SDS011;47864;52.526;19.672;2023-11-19T08:19:16;65.55;;;36.38;;
61907;SDS011;47864;52.526;19.672;2023-11-19T08:21:17;64.07;;;35.33;;
61907;SDS011;47864;52.526;19.672;2023-11-19T08:23:20;63.42;;;35.17;;
61907;SDS011;47864;52.526;19.672;2023-11-19T08:25:21;60.15;;;34.22;;
61907;SDS011;47864;52.526;19.672;2023-11-19T08:27:23;65.45;;;35.00;;
61907;SDS011;47864;52.526;19.672;2023-11-19T08:29:24;61.10;;;34.63;;
61907;SDS011;47864;52.526;19.672;2023-11-19T08:31:26;58.00;;;34.00;;
61907;SDS011;47864;52.526;19.672;2023-11-19T08:33:27;62.53;;;34.63;;
61907;SDS011;47864;52.526;19.672;2023-11-19T08:35:29;61.60;;;35.95;;
61907;SDS011;47864;52.526;19.672;2023-11-19T08:37:31;63.97;;;35.00;;
61907;SDS011;47864;52.526;19.672;2023-11-19T08:39:32;60.40;;;34.58;;
61907;SDS011;47864;52.526;19.672;2023-11-19T08:41:33;66.78;;;36.35;;
61907;SDS011;47864;52.526;19.672;2023-11-19T08:43:35;64.60;;;37.95;;
61907;SDS011;47864;52.526;19.672;2023-11-19T08:45:37;60.17;;;36.25;;
61907;SDS011;47864;52.526;19.672;2023-11-19T08:47:38;62.38;;;34.90;;
61907;SDS011;47864;52.526;19.672;2023-11-19T08:49:40;68.45;;;38.60;;
61907;SDS011;47864;52.526;19.672;2023-11-19T08:51:41;62.72;;;36.30;;
61907;SDS011;47864;52.526;19.672;2023-11-19T08:53:43;66.47;;;38.95;;
61907;SDS011;47864;52.526;19.672;2023-11-19T08:55:44;75.55;;;42.88;;
61907;SDS011;47864;52.526;19.672;2023-11-19T08:57:46;69.45;;;41.67;;
61907;SDS011;47864;52.526;19.672;2023-11-19T08:59:47;67.05;;;37.92;;
61907;SDS011;47864;52.526;19.672;2023-11-19T09:01:49;93.03;;;54.28;;
61907;SDS011;47864;52.526;19.672;2023-11-19T09:03:50;63.58;;;37.92;;
61907;SDS011;47864;52.526;19.672;2023-11-19T09:05:52;62.67;;;39.50;;
61907;SDS011;47864;52.526;19.672;2023-11-19T09:07:54;57.83;;;34.35;;
61907;SDS011;47864;52.526;19.672;2023-11-19T09:09:56;58.17;;;36.05;;
61907;SDS011;47864;52.526;19.672;2023-11-19T09:11:57;57.25;;;34.25;;
61907;SDS011;47864;52.526;19.672;2023-11-19T09:13:59;56.13;;;33.97;;
61907;SDS011;47864;52.526;19.672;2023-11-19T09:16:00;59.38;;;34.15;;
61907;SDS011;47864;52.526;19.672;2023-11-19T09:18:02;73.72;;;44.83;;
61907;SDS011;47864;52.526;19.672;2023-11-19T09:20:04;58.00;;;34.60;;
61907;SDS011;47864;52.526;19.672;2023-11-19T09:22:05;56.05;;;33.63;;
61907;SDS011;47864;52.526;19.672;2023-11-19T09:24:07;59.03;;;32.08;;
61907;SDS011;47864;52.526;19.672;2023-11-19T09:26:09;60.90;;;34.55;;
61907;SDS011;47864;52.526;19.672;2023-11-19T09:28:10;58.47;;;35.45;;
61907;SDS011;47864;52.526;19.672;2023-11-19T09:30:12;52.08;;;31.98;;
61907;SDS011;47864;52.526;19.672;2023-11-19T09:32:14;56.15;;;34.00;;
61907;SDS011;47864;52.526;19.672;2023-11-19T09:34:15;55.65;;;33.33;;
61907;SDS011;47864;52.526;19.672;2023-11-19T09:36:17;56.90;;;34.85;;
61907;SDS011;47864;52.526;19.672;2023-11-19T09:38:18;51.63;;;32.20;;
61907;SDS011;47864;52.526;19.672;2023-11-19T09:40:20;55.80;;;32.55;;
61907;SDS011;47864;52.526;19.672;2023-11-19T09:42:23;90.97;;;50.97;;
61907;SDS011;47864;52.526;19.672;2023-11-19T09:44:25;56.33;;;34.08;;
61907;SDS011;47864;52.526;19.672;2023-11-19T09:46:29;58.40;;;35.47;;
61907;SDS011;47864;52.526;19.672;2023-11-19T09:48:32;52.88;;;31.55;;
61907;SDS011;47864;52.526;19.672;2023-11-19T09:50:34;52.05;;;31.02;;
61907;SDS011;47864;52.526;19.672;2023-11-19T09:52:36;58.47;;;35.25;;
61907;SDS011;47864;52.526;19.672;2023-11-19T09:54:37;58.95;;;35.30;;
61907;SDS011;47864;52.526;19.672;2023-11-19T09:56:39;62.78;;;36.08;;
61907;SDS011;47864;52.526;19.672;2023-11-19T09:58:41;56.85;;;37.42;;
61907;SDS011;47864;52.526;19.672;2023-11-19T10:00:43;62.35;;;37.83;;
61907;SDS011;47864;52.526;19.672;2023-11-19T10:02:53;54.03;;;32.03;;
61907;SDS011;47864;52.526;19.672;2023-11-19T10:04:56;75.28;;;38.13;;
61907;SDS011;47864;52.526;19.672;2023-11-19T10:06:59;55.65;;;33.60;;
61907;SDS011;47864;52.526;19.672;2023-11-19T10:09:01;53.67;;;30.98;;
61907;SDS011;47864;52.526;19.672;2023-11-19T10:11:03;53.90;;;32.88;;
61907;SDS011;47864;52.526;19.672;2023-11-19T10:13:04;52.50;;;29.77;;
61907;SDS011;47864;52.526;19.672;2023-11-19T10:15:06;54.35;;;32.72;;
61907;SDS011;47864;52.526;19.672;2023-11-19T10:17:18;58.65;;;35.17;;
61907;SDS011;47864;52.526;19.672;2023-11-19T10:19:20;57.05;;;31.85;;
61907;SDS011;47864;52.526;19.672;2023-11-19T10:21:22;59.00;;;32.67;;
61907;SDS011;47864;52.526;19.672;2023-11-19T10:23:24;61.00;;;36.70;;
61907;SDS011;47864;52.526;19.672;2023-11-19T10:25:26;58.13;;;37.70;;
61907;SDS011;47864;52.526;19.672;2023-11-19T10:27:29;58.22;;;31.80;;
61907;SDS011;47864;52.526;19.672;2023-11-19T10:29:31;57.83;;;33.78;;
61907;SDS011;47864;52.526;19.672;2023-11-19T10:31:32;49.70;;;30.83;;
61907;SDS011;47864;52.526;19.672;2023-11-19T10:33:34;52.53;;;30.10;;
61907;SDS011;47864;52.526;19.672;2023-11-19T10:35:36;52.53;;;31.10;;
61907;SDS011;47864;52.526;19.672;2023-11-19T10:38:15;50.75;;;29.23;;
61907;SDS011;47864;52.526;19.672;2023-11-19T10:40:17;51.13;;;28.90;;
61907;SDS011;47864;52.526;19.672;2023-11-19T10:42:19;49.20;;;30.40;;
61907;SDS011;47864;52.526;19.672;2023-11-19T10:44:33;45.67;;;27.83;;
61907;SDS011;47864;52.526;19.672;2023-11-19T10:46:44;45.08;;;27.80;;
61907;SDS011;47864;52.526;19.672;2023-11-19T10:48:45;53.47;;;31.83;;
61907;SDS011;47864;52.526;19.672;2023-11-19T10:50:49;59.33;;;32.53;;
61907;SDS011;47864;52.526;19.672;2023-11-19T10:52:55;56.33;;;31.13;;
61907;SDS011;47864;52.526;19.672;2023-11-19T10:54:58;46.47;;;29.52;;
61907;SDS011;47864;52.526;19.672;2023-11-19T10:57:02;57.30;;;31.98;;
61907;SDS011;47864;52.526;19.672;2023-11-19T10:59:05;52.80;;;32.17;;
61907;SDS011;47864;52.526;19.672;2023-11-19T11:01:24;58.58;;;37.25;;
61907;SDS011;47864;52.526;19.672;2023-11-19T11:03:29;65.20;;;39.00;;
61907;SDS011;47864;52.526;19.672;2023-11-19T11:05:38;87.35;;;49.70;;
61907;SDS011;47864;52.526;19.672;2023-11-19T11:07:40;114.93;;;59.05;;
61907;SDS011;47864;52.526;19.672;2023-11-19T11:09:42;97.15;;;50.60;;
61907;SDS011;47864;52.526;19.672;2023-11-19T11:11:47;73.85;;;40.58;;
61907;SDS011;47864;52.526;19.672;2023-11-19T11:13:49;102.70;;;48.97;;
61907;SDS011;47864;52.526;19.672;2023-11-19T11:15:51;112.07;;;51.30;;
61907;SDS011;47864;52.526;19.672;2023-11-19T11:17:54;98.30;;;48.22;;
61907;SDS011;47864;52.526;19.672;2023-11-19T11:20:01;73.35;;;38.83;;
61907;SDS011;47864;52.526;19.672;2023-11-19T11:22:02;90.53;;;47.90;;
61907;SDS011;47864;52.526;19.672;2023-11-19T11:36:17;51.38;;;31.02;;
61907;SDS011;47864;52.526;19.672;2023-11-19T11:38:21;46.90;;;27.67;;
61907;SDS011;47864;52.526;19.672;2023-11-19T11:40:23;45.97;;;26.88;;
61907;SDS011;47864;52.526;19.672;2023-11-19T11:45:14;40.40;;;25.42;;
61907;SDS011;47864;52.526;19.672;2023-11-19T11:47:08;44.50;;;26.02;;
61907;SDS011;47864;52.526;19.672;2023-11-19T11:49:09;47.20;;;27.33;;
61907;SDS011;47864;52.526;19.672;2023-11-19T11:51:11;47.72;;;30.42;;
61907;SDS011;47864;52.526;19.672;2023-11-19T11:53:13;49.65;;;31.88;;
61907;SDS011;47864;52.526;19.672;2023-11-19T11:55:15;49.22;;;28.83;;
61907;SDS011;47864;52.526;19.672;2023-11-19T11:57:16;44.60;;;26.52;;
61907;SDS011;47864;52.526;19.672;2023-11-19T11:59:18;43.60;;;27.50;;